Time;durP1;ratioP1;P1;durP2;ratioP2;P2;SDS_P1;SDS_P2;PMS_P1;PMS_P2;Temp;Humidity;BMP_temperature;BMP_pressure;BME280_temperature;BME280_humidity;BME280_pressure;Samples;Min_cycle;Max_cycle;Signal;HPM_P1;HPM_P2
2022/12/15 04:00:50;;;;;;;;;;;-7.80;99.90;;;;;;5975059;23;19948;-70
2022/12/15 04:03:16;;;;;;;;;;;-7.80;99.90;;;;;;4925823;29;19927;-70
2022/12/15 04:05:43;;;;;;;;;;;-7.80;99.90;;;;;;4928298;29;19977;-69
2022/12/15 04:08:10;;;;;;;;;;;-7.90;99.90;;;;;;4930715;29;19962;-69
2022/12/15 04:10:37;;;;;;;;;;;-7.90;99.90;;;;;;4928053;29;19982;-69
2022/12/15 04:13:04;;;;;;;;;;;-8.00;99.90;;;;;;4926161;29;20006;-71
2022/12/15 04:15:31;;;;;;;;;;;-8.00;99.90;;;;;;4922130;29;19966;-67
2022/12/15 04:18:00;;;;;;;;;;;-8.10;99.90;;;;;;4927721;29;20412;-70
2022/12/15 04:20:26;;;;;;;;;;;-8.10;99.90;;;;;;4926762;29;19928;-70
2022/12/15 04:22:52;;;;;;;;;;;-8.10;99.90;;;;;;4929428;29;19970;-70
2022/12/15 05:33:58;;;;;;;;;;;-8.40;99.90;;;;;;4928645;29;19929;-68
2022/12/15 05:36:25;;;;;;;;;;;-8.40;99.90;;;;;;4929266;29;19937;-70
2022/12/15 05:38:53;;;;;;;;;;;-8.30;99.90;;;;;;4930418;29;19926;-70
2022/12/15 05:41:21;;;;;;;;;;;-8.20;99.90;;;;;;4923142;29;19942;-70
2022/12/15 05:43:47;;;;;;;;;;;-8.20;99.90;;;;;;4929459;29;20409;-68
2022/12/15 05:46:14;;;;;;;;;;;-8.30;99.90;;;;;;4927520;29;20609;-70
2022/12/15 05:48:41;;;;;;;;;;;-8.30;99.90;;;;;;4929202;29;20357;-69
2022/12/15 05:51:09;;;;;;;;;;;-8.20;99.90;;;;;;4924826;29;19930;-69
2022/12/15 05:53:36;;;;;;;;;;;-8.20;99.90;;;;;;4929040;29;19931;-69
2022/12/15 05:56:05;;;;;;;;;;;-8.20;99.90;;;;;;4929742;29;19931;-69
2022/12/15 05:58:32;;;;;;;;;;;-8.20;99.90;;;;;;4927245;29;20000;-71
2022/12/15 06:01:03;;;;;;;;;;;-8.20;99.90;;;;;;4926149;29;19935;-70
2022/12/15 06:03:30;;;;;;;;;;;-8.10;99.90;;;;;;4945128;28;19930;-72
2022/12/15 06:05:57;;;;;;;;;;;-8.10;99.90;;;;;;4925502;29;20342;-70
2022/12/15 06:08:24;;;;;;;;;;;-8.10;99.90;;;;;;4927491;29;20466;-70
2022/12/15 06:10:52;;;;;;;;;;;-8.00;99.90;;;;;;4929676;29;19934;-70
2022/12/15 06:13:20;;;;;;;;;;;-8.00;99.90;;;;;;4931006;29;20355;-70
2022/12/15 06:15:54;;;;;;;;;;;-8.10;99.90;;;;;;4928762;29;19935;-71
2022/12/15 06:18:21;;;;;;;;;;;-8.10;99.90;;;;;;4938418;29;19942;-69
2022/12/15 06:20:47;;;;;;;;;;;-8.20;99.90;;;;;;4932949;29;19934;-71
2022/12/15 06:23:14;;;;;;;;;;;-8.20;99.90;;;;;;4933191;28;19927;-71
2022/12/15 06:25:41;;;;;;;;;;;-8.20;99.90;;;;;;4932387;29;19927;-70
2022/12/15 06:28:08;;;;;;;;;;;-8.30;99.90;;;;;;4926445;29;19931;-71
2022/12/15 06:30:37;;;;;;;;;;;-8.30;99.90;;;;;;4930479;29;19938;-70
2022/12/15 06:33:04;;;;;;;;;;;-8.30;99.90;;;;;;4922732;29;19927;-70
2022/12/15 06:35:31;;;;;;;;;;;-8.30;99.90;;;;;;4927168;29;19935;-69
2022/12/15 06:37:57;;;;;;;;;;;-8.30;99.90;;;;;;4927113;29;19927;-69
2022/12/15 06:40:24;;;;;;;;;;;-8.30;99.90;;;;;;4928551;29;19927;-70
2022/12/15 06:42:51;;;;;;;;;;;-8.20;99.90;;;;;;4926766;29;19927;-68
2022/12/15 06:45:18;;;;;;;;;;;-8.20;99.90;;;;;;4925781;29;19927;-69
2022/12/15 06:47:48;;;;;;;;;;;-8.20;99.90;;;;;;4926549;29;20394;-69
2022/12/15 06:50:14;;;;;;;;;;;-8.20;99.90;;;;;;4924886;29;20002;-69
2022/12/15 06:52:41;;;;;;;;;;;-8.20;99.90;;;;;;4925585;29;19927;-68
2022/12/15 06:55:08;;;;;;;;;;;-8.30;99.90;;;;;;4926522;29;20002;-69
2022/12/15 06:57:37;;;;;;;;;;;-8.30;99.90;;;;;;4930539;29;19935;-69
2022/12/15 07:00:05;;;;;;;;;;;-8.30;99.90;;;;;;4926834;29;19927;-71
2022/12/15 07:02:33;;;;;;;;;;;-8.30;99.90;;;;;;4923462;29;19926;-69
2022/12/15 07:05:01;;;;;;;;;;;-8.30;99.90;;;;;;4925373;29;19931;-67
2022/12/15 07:07:28;;;;;;;;;;;-8.40;99.90;;;;;;4928529;29;20398;-70
2022/12/15 07:09:55;;;;;;;;;;;-8.40;99.90;;;;;;4927826;29;19934;-70
2022/12/15 07:12:21;;;;;;;;;;;-8.40;99.90;;;;;;4925530;29;19930;-69
2022/12/15 07:14:49;;;;;;;;;;;-8.40;99.90;;;;;;4925828;29;19934;-69
2022/12/15 07:17:15;;;;;;;;;;;-8.30;99.90;;;;;;4925447;29;20363;-69
2022/12/15 07:19:42;;;;;;;;;;;-8.30;99.90;;;;;;4922874;29;19927;-69
2022/12/15 07:22:10;;;;;;;;;;;-8.30;99.90;;;;;;4927857;29;19974;-70
2022/12/15 07:24:37;;;;;;;;;;;-8.30;99.90;;;;;;4929069;29;19927;-69
2022/12/15 07:27:04;;;;;;;;;;;-8.30;99.90;;;;;;4928817;29;19931;-68
2022/12/15 07:29:31;;;;;;;;;;;-8.30;99.90;;;;;;4928933;29;19938;-69
2022/12/15 07:31:59;;;;;;;;;;;-8.30;99.90;;;;;;4927981;29;19927;-69
2022/12/15 07:34:26;;;;;;;;;;;-8.30;99.90;;;;;;4923538;29;19935;-69
2022/12/15 07:36:52;;;;;;;;;;;-8.30;99.90;;;;;;4926667;29;19931;-69
2022/12/15 07:39:21;;;;;;;;;;;-8.30;99.90;;;;;;4927911;29;19931;-68
2022/12/15 07:41:47;;;;;;;;;;;-8.10;99.90;;;;;;4925271;29;20373;-69
2022/12/15 07:44:16;;;;;;;;;;;-8.00;99.90;;;;;;4930338;29;20353;-68
2022/12/15 07:46:45;;;;;;;;;;;-8.00;99.90;;;;;;4927943;29;19926;-70
2022/12/15 07:49:12;;;;;;;;;;;-8.10;99.90;;;;;;4928291;29;19974;-68
2022/12/15 07:51:40;;;;;;;;;;;-8.10;99.90;;;;;;4923160;29;19927;-69
2022/12/15 07:54:06;;;;;;;;;;;-8.10;99.90;;;;;;4928891;29;20029;-68
2022/12/15 07:56:35;;;;;;;;;;;-8.10;99.90;;;;;;4925317;29;19927;-69
2022/12/15 07:59:01;;;;;;;;;;;-8.00;99.90;;;;;;4926937;29;19931;-69
2022/12/15 08:01:28;;;;;;;;;;;-7.90;99.90;;;;;;4929500;29;19926;-69
2022/12/15 08:03:55;;;;;;;;;;;-7.90;99.90;;;;;;4924272;29;19927;-70
2022/12/15 08:06:22;;;;;;;;;;;-7.90;99.90;;;;;;4924973;29;20397;-69
2022/12/15 08:08:49;;;;;;;;;;;-7.90;99.90;;;;;;4925830;29;19931;-68
2022/12/15 08:11:16;;;;;;;;;;;-7.80;99.90;;;;;;4925922;29;19934;-70
2022/12/15 08:13:44;;;;;;;;;;;-7.70;99.90;;;;;;4922602;29;19933;-69
2022/12/15 08:16:11;;;;;;;;;;;-7.60;99.90;;;;;;4927651;29;20313;-69
2022/12/15 08:18:38;;;;;;;;;;;-7.60;99.90;;;;;;4924247;29;19959;-69
2022/12/15 08:21:07;;;;;;;;;;;-7.60;99.90;;;;;;4926800;29;19931;-69
2022/12/15 08:23:34;;;;;;;;;;;-7.60;99.90;;;;;;4924628;29;20416;-69
2022/12/15 08:26:05;;;;;;;;;;;-7.50;99.90;;;;;;4930203;29;20419;-69
2022/12/15 08:28:32;;;;;;;;;;;-7.40;99.90;;;;;;4925774;29;19962;-69
2022/12/15 08:31:03;;;;;;;;;;;-7.30;99.90;;;;;;4926200;29;19931;-69
2022/12/15 08:33:31;;;;;;;;;;;-7.20;99.90;;;;;;4924509;29;19934;-69
2022/12/15 08:35:58;;;;;;;;;;;-7.10;99.90;;;;;;4924139;29;19927;-70
2022/12/15 08:38:25;;;;;;;;;;;-7.00;99.90;;;;;;4927703;29;19931;-69
2022/12/15 08:40:52;;;;;;;;;;;-6.90;99.90;;;;;;4924921;29;19931;-69
2022/12/15 08:43:18;;;;;;;;;;;-6.80;99.90;;;;;;4928013;29;19927;-69
2022/12/15 08:45:45;;;;;;;;;;;-6.70;99.90;;;;;;4928646;29;19927;-69
2022/12/15 08:48:13;;;;;;;;;;;-6.60;99.90;;;;;;4930432;29;19930;-66
2022/12/15 08:50:42;;;;;;;;;;;-6.50;99.90;;;;;;4929535;29;19927;-67
2022/12/15 08:53:09;;;;;;;;;;;-6.30;99.90;;;;;;4927917;29;19927;-69
2022/12/15 08:55:36;;;;;;;;;;;-6.20;99.90;;;;;;4931779;29;19949;-69
2022/12/15 08:58:03;;;;;;;;;;;-6.00;99.90;;;;;;4927963;29;19927;-71
2022/12/15 09:00:29;;;;;;;;;;;-6.00;99.90;;;;;;4930070;29;19934;-70
2022/12/15 09:02:58;;;;;;;;;;;-5.80;99.90;;;;;;4931457;29;19934;-69
2022/12/15 09:05:26;;;;;;;;;;;-5.70;99.90;;;;;;4929947;29;19934;-69
2022/12/15 09:07:54;;;;;;;;;;;-5.60;99.90;;;;;;4924910;29;19927;-69
2022/12/15 09:10:21;;;;;;;;;;;-5.40;99.90;;;;;;4924809;29;19934;-69
2022/12/15 09:12:48;;;;;;;;;;;-5.30;99.90;;;;;;4932155;29;19926;-71
2022/12/15 09:15:14;;;;;;;;;;;-5.10;99.90;;;;;;4926658;29;19950;-69
2022/12/15 09:17:41;;;;;;;;;;;-5.00;99.90;;;;;;4931435;29;19931;-69
2022/12/15 09:20:09;;;;;;;;;;;-4.90;99.90;;;;;;4927892;29;19935;-69
2022/12/15 09:22:37;;;;;;;;;;;-4.70;99.90;;;;;;4928087;29;20386;-70
2022/12/15 09:25:04;;;;;;;;;;;-4.60;99.90;;;;;;4931804;29;19931;-69
2022/12/15 09:27:30;;;;;;;;;;;-4.40;99.90;;;;;;4926732;29;19927;-69
2022/12/15 09:29:57;;;;;;;;;;;-4.30;99.90;;;;;;4926889;29;19986;-69
2022/12/15 09:32:24;;;;;;;;;;;-4.10;99.90;;;;;;4931341;29;19962;-69
2022/12/15 09:34:51;;;;;;;;;;;-3.90;99.90;;;;;;4926914;29;19926;-70
2022/12/15 09:37:18;;;;;;;;;;;-3.70;99.90;;;;;;4931407;29;19927;-68
2022/12/15 09:39:46;;;;;;;;;;;-3.60;99.90;;;;;;4928799;29;20003;-69
2022/12/15 09:42:22;;;;;;;;;;;-3.50;99.90;;;;;;4926924;29;19974;-69
2022/12/15 09:44:50;;;;;;;;;;;-3.30;99.90;;;;;;4929535;29;19928;-69
2022/12/15 09:47:18;;;;;;;;;;;-3.20;99.90;;;;;;4930372;29;19930;-69
2022/12/15 09:49:53;;;;;;;;;;;-3.00;99.90;;;;;;4926751;29;19927;-69
2022/12/15 09:52:22;;;;;;;;;;;-2.80;99.90;;;;;;4929622;29;19938;-69
2022/12/15 09:54:50;;;;;;;;;;;-2.60;99.90;;;;;;4927785;29;19974;-69
2022/12/15 09:57:21;;;;;;;;;;;-2.40;99.90;;;;;;4929324;29;19934;-69
2022/12/15 09:59:55;;;;;;;;;;;-2.20;99.90;;;;;;4926368;29;19927;-69
2022/12/15 10:02:28;;;;;;;;;;;-2.10;99.90;;;;;;4926961;29;19927;-70
2022/12/15 10:04:57;;;;;;;;;;;-1.80;99.90;;;;;;4923396;29;19947;-71
2022/12/15 10:07:28;;;;;;;;;;;-1.60;99.90;;;;;;4928844;29;19931;-69
2022/12/15 10:09:57;;;;;;;;;;;-1.40;99.90;;;;;;4927672;29;19927;-69
2022/12/15 10:12:25;;;;;;;;;;;-1.30;99.90;;;;;;4928802;29;19927;-70
2022/12/15 10:14:54;;;;;;;;;;;-1.20;99.90;;;;;;4930821;29;19927;-70
2022/12/15 10:17:23;;;;;;;;;;;-1.00;99.90;;;;;;4928232;29;19934;-70
2022/12/15 10:19:54;;;;;;;;;;;-1.00;99.90;;;;;;4926644;29;19933;-71
2022/12/15 10:22:22;;;;;;;;;;;-0.20;99.90;;;;;;4930175;29;19933;-69
2022/12/15 10:24:49;;;;;;;;;;;2.10;99.90;;;;;;4930448;29;19927;-69
2022/12/15 10:27:28;;;;;;;;;;;3.10;99.90;;;;;;4929036;29;20358;-69
2022/12/15 10:29:59;;;;;;;;;;;5.40;99.90;;;;;;4925321;29;19931;-69
2022/12/15 10:32:31;;;;;;;;;;;7.70;99.90;;;;;;4929357;29;19927;-69
2022/12/15 10:34:58;;;;;;;;;;;8.10;99.90;;;;;;4925428;29;20424;-69
2022/12/15 10:37:25;;;;;;;;;;;5.70;99.90;;;;;;4928004;29;19927;-70
2022/12/15 10:39:52;;;;;;;;;;;5.70;99.90;;;;;;4928662;29;19927;-66
2022/12/15 10:42:20;;;;;;;;;;;7.40;99.90;;;;;;4929553;29;19927;-67
2022/12/15 10:44:49;;;;;;;;;;;8.90;99.90;;;;;;4927262;29;20501;-67
2022/12/15 10:47:21;;;;;;;;;;;10.40;99.90;;;;;;4928101;29;19933;-68
2022/12/15 10:49:48;;;;;;;;;;;11.70;99.90;;;;;;4924337;29;19962;-68
2022/12/15 10:52:19;;;;;;;;;;;12.90;99.90;;;;;;4930163;29;19927;-68
2022/12/15 10:54:47;;;;;;;;;;;12.90;99.90;;;;;;4928745;29;19926;-67
2022/12/15 10:57:17;;;;;;;;;;;12.10;99.90;;;;;;4925552;29;19939;-68
2022/12/15 10:59:44;;;;;;;;;;;12.70;99.90;;;;;;4927662;29;19931;-68
2022/12/15 11:02:32;;;;;;;;;;;13.10;99.90;;;;;;4924787;29;19927;-67
2022/12/15 11:05:00;;;;;;;;;;;12.90;99.90;;;;;;4924839;29;20013;-68
2022/12/15 11:07:29;;;;;;;;;;;13.90;99.90;;;;;;4925432;29;19927;-67
2022/12/15 11:09:58;;;;;;;;;;;15.30;99.90;;;;;;4927741;29;19934;-68
2022/12/15 11:15:27;;;;;;;;;;;15.40;99.90;;;;;;4924616;29;19930;-68
2022/12/15 11:17:57;;;;;;;;;;;16.70;99.90;;;;;;4919781;29;19931;-70
2022/12/15 11:20:30;;;;;;;;;;;17.30;99.90;;;;;;4924584;29;19926;-67
2022/12/15 11:22:58;;;;;;;;;;;18.30;99.90;;;;;;4922489;29;20021;-67
2022/12/15 11:25:29;;;;;;;;;;;17.90;99.90;;;;;;4929485;29;20021;-68
2022/12/15 11:27:59;;;;;;;;;;;17.70;99.90;;;;;;4928425;29;19957;-70
2022/12/15 11:30:28;;;;;;;;;;;16.60;99.40;;;;;;4922278;29;19931;-67
2022/12/15 11:32:58;;;;;;;;;;;15.60;99.90;;;;;;4936142;29;19934;-66
2022/12/15 11:35:28;;;;;;;;;;;14.80;99.60;;;;;;4927382;29;19927;-67
2022/12/15 11:37:57;;;;;;;;;;;14.40;99.90;;;;;;4923472;29;19927;-67
2022/12/15 11:40:31;;;;;;;;;;;13.50;99.70;;;;;;4927840;29;19937;-67
2022/12/15 11:43:09;;;;;;;;;;;14.10;99.90;;;;;;4925881;29;19927;-67
2022/12/15 11:45:41;;;;;;;;;;;13.40;99.50;;;;;;4922782;29;19933;-68
2022/12/15 11:48:12;;;;;;;;;;;14.20;99.90;;;;;;4924103;29;19928;-67
2022/12/15 11:50:42;;;;;;;;;;;14.00;99.90;;;;;;4924252;29;19934;-66
2022/12/15 11:53:18;;;;;;;;;;;14.20;99.90;;;;;;4925819;29;19926;-67
2022/12/15 11:55:48;;;;;;;;;;;13.30;99.90;;;;;;4927726;29;19934;-67
2022/12/15 11:58:35;;;;;;;;;;;13.30;99.90;;;;;;4926982;29;19927;-68
2022/12/15 12:01:07;;;;;;;;;;;13.40;99.90;;;;;;4925214;29;19998;-69
2022/12/15 12:03:38;;;;;;;;;;;13.80;99.90;;;;;;4926448;29;19927;-67
2022/12/15 12:06:14;;;;;;;;;;;13.60;99.90;;;;;;4930415;29;19926;-67
2022/12/15 12:08:45;;;;;;;;;;;13.90;99.90;;;;;;4923694;29;19947;-68
2022/12/15 12:11:14;;;;;;;;;;;14.80;99.70;;;;;;4923515;29;19927;-67
2022/12/15 12:13:46;;;;;;;;;;;15.00;99.90;;;;;;4926204;29;19927;-65
2022/12/15 12:16:19;;;;;;;;;;;14.50;99.90;;;;;;4926956;29;19931;-67
2022/12/15 12:18:51;;;;;;;;;;;15.00;99.90;;;;;;4923110;29;19927;-67
2022/12/15 12:21:20;;;;;;;;;;;16.10;99.90;;;;;;4928032;29;19969;-68
2022/12/15 12:23:49;;;;;;;;;;;15.70;99.40;;;;;;4929172;29;19942;-68
2022/12/15 12:26:19;;;;;;;;;;;16.10;99.90;;;;;;4929576;29;19934;-68
2022/12/15 12:28:47;;;;;;;;;;;15.80;99.90;;;;;;4933485;29;20424;-67
2022/12/15 12:31:19;;;;;;;;;;;16.70;99.80;;;;;;4928421;29;19927;-68
2022/12/15 12:33:49;;;;;;;;;;;17.80;99.50;;;;;;4931312;29;19927;-67
2022/12/15 12:36:16;;;;;;;;;;;17.40;99.60;;;;;;4927254;29;20318;-68
2022/12/15 12:38:45;;;;;;;;;;;17.50;99.60;;;;;;4929760;29;19934;-68
2022/12/15 12:41:17;;;;;;;;;;;18.30;99.70;;;;;;4929450;29;19934;-67
2022/12/15 12:43:46;;;;;;;;;;;17.60;98.70;;;;;;4926808;29;19938;-68
2022/12/15 12:46:15;;;;;;;;;;;16.60;98.70;;;;;;4930336;29;19927;-67
2022/12/15 12:48:45;;;;;;;;;;;16.80;99.20;;;;;;4929027;29;19927;-68
2022/12/15 12:51:18;;;;;;;;;;;16.70;99.10;;;;;;4928609;29;19934;-67
2022/12/15 12:53:45;;;;;;;;;;;16.20;98.90;;;;;;4929147;29;19950;-67
2022/12/15 12:56:27;;;;;;;;;;;16.60;99.10;;;;;;4931231;29;19982;-68
2022/12/15 12:58:54;;;;;;;;;;;16.00;98.50;;;;;;4923250;29;19970;-69
2022/12/15 13:01:25;;;;;;;;;;;15.40;98.30;;;;;;4930109;29;19930;-68
2022/12/15 13:04:05;;;;;;;;;;;14.80;98.50;;;;;;4928381;29;19949;-68
2022/12/15 13:06:51;;;;;;;;;;;13.80;98.80;;;;;;4930596;29;19931;-67
2022/12/15 13:09:23;;;;;;;;;;;14.40;99.00;;;;;;4928564;29;19927;-67
2022/12/15 13:11:55;;;;;;;;;;;14.80;98.90;;;;;;4930531;29;19927;-68
2022/12/15 13:14:26;;;;;;;;;;;15.10;98.70;;;;;;4921593;29;19950;-67
2022/12/15 13:16:56;;;;;;;;;;;15.70;98.40;;;;;;4943473;29;20327;-68
2022/12/15 13:19:37;;;;;;;;;;;16.50;98.60;;;;;;4930911;29;19935;-67
2022/12/15 13:22:22;;;;;;;;;;;16.70;97.70;;;;;;4931049;29;19926;-67
2022/12/15 13:24:50;;;;;;;;;;;16.80;97.50;;;;;;4931179;29;20401;-67
2022/12/15 13:27:18;;;;;;;;;;;15.60;99.20;;;;;;4930523;29;20346;-67
2022/12/15 13:29:56;;;;;;;;;;;14.70;99.90;;;;;;4926399;29;19938;-67
2022/12/15 13:32:27;;;;;;;;;;;14.20;99.90;;;;;;4930461;29;19927;-68
2022/12/15 13:34:54;;;;;;;;;;;13.50;99.90;;;;;;4927932;29;19927;-67
2022/12/15 13:37:35;;;;;;;;;;;13.00;99.90;;;;;;4927153;29;19927;-68
2022/12/15 13:40:24;;;;;;;;;;;12.90;99.90;;;;;;4922129;29;20002;-69
2022/12/15 13:42:56;;;;;;;;;;;13.10;99.90;;;;;;4931310;29;19933;-67
2022/12/15 13:45:41;;;;;;;;;;;13.00;99.90;;;;;;4931264;29;19939;-68
2022/12/15 13:48:13;;;;;;;;;;;13.40;99.90;;;;;;4944307;29;19934;-68
2022/12/15 13:50:44;;;;;;;;;;;13.50;99.90;;;;;;4928281;29;20028;-68
2022/12/15 13:53:15;;;;;;;;;;;12.50;99.90;;;;;;4925374;29;19934;-65
2022/12/15 13:55:52;;;;;;;;;;;12.00;99.90;;;;;;4930771;29;20330;-66
2022/12/15 13:58:20;;;;;;;;;;;11.70;99.90;;;;;;4926982;29;19927;-65
2022/12/15 14:00:48;;;;;;;;;;;11.20;99.90;;;;;;4929914;29;20291;-68
2022/12/15 14:03:15;;;;;;;;;;;11.80;99.90;;;;;;4927158;29;19943;-68
2022/12/15 14:05:47;;;;;;;;;;;11.90;99.90;;;;;;4929929;29;19927;-69
2022/12/15 14:08:15;;;;;;;;;;;12.30;99.90;;;;;;4930399;29;19982;-67
2022/12/15 14:10:42;;;;;;;;;;;12.20;99.90;;;;;;4927937;29;19931;-66
2022/12/15 14:13:13;;;;;;;;;;;11.80;99.90;;;;;;4929750;29;20342;-67
2022/12/15 14:15:42;;;;;;;;;;;11.40;99.90;;;;;;4926320;29;19950;-69
2022/12/15 14:18:21;;;;;;;;;;;11.00;99.90;;;;;;4929824;29;19927;-68
2022/12/15 14:20:48;;;;;;;;;;;10.90;99.90;;;;;;4926187;29;19926;-68
2022/12/15 14:23:18;;;;;;;;;;;10.60;99.90;;;;;;4931686;29;19942;-69
2022/12/15 14:25:52;;;;;;;;;;;10.00;99.90;;;;;;4926142;29;20302;-68
2022/12/15 14:28:30;;;;;;;;;;;9.60;99.90;;;;;;4928377;29;20358;-67
2022/12/15 14:30:59;;;;;;;;;;;9.40;99.90;;;;;;4947065;29;20362;-67
2022/12/15 14:33:26;;;;;;;;;;;9.40;99.90;;;;;;4927884;29;19930;-67
2022/12/15 14:35:55;;;;;;;;;;;9.10;99.90;;;;;;4929856;29;20387;-68
2022/12/15 14:38:23;;;;;;;;;;;8.90;99.90;;;;;;4925751;29;19926;-67
2022/12/15 14:40:51;;;;;;;;;;;8.70;99.90;;;;;;4929022;29;19931;-69
2022/12/15 14:43:20;;;;;;;;;;;8.30;99.90;;;;;;4926751;29;19966;-69
2022/12/15 14:45:50;;;;;;;;;;;8.20;99.90;;;;;;4928937;29;19926;-68
2022/12/15 14:48:20;;;;;;;;;;;7.70;99.90;;;;;;4925243;29;19938;-68
2022/12/15 14:50:48;;;;;;;;;;;7.40;99.90;;;;;;4928660;29;19990;-68
2022/12/15 14:53:16;;;;;;;;;;;7.60;99.90;;;;;;4924899;29;19971;-68
2022/12/15 14:55:43;;;;;;;;;;;7.60;99.90;;;;;;4924933;29;20026;-69
2022/12/15 14:58:22;;;;;;;;;;;7.20;99.90;;;;;;4928992;29;19933;-68
2022/12/15 15:00:52;;;;;;;;;;;6.30;99.90;;;;;;4928251;29;19927;-70
2022/12/15 15:03:21;;;;;;;;;;;5.30;99.90;;;;;;4926293;29;19927;-68
2022/12/15 15:05:49;;;;;;;;;;;4.30;99.90;;;;;;4927257;29;19937;-68
2022/12/15 15:08:21;;;;;;;;;;;3.50;99.90;;;;;;4925464;29;19931;-67
2022/12/15 15:10:48;;;;;;;;;;;2.80;99.90;;;;;;4929671;29;19930;-68
2022/12/15 15:13:17;;;;;;;;;;;2.00;99.90;;;;;;4921892;29;19935;-68
2022/12/15 15:15:51;;;;;;;;;;;1.60;99.90;;;;;;4927991;29;19935;-68
2022/12/15 15:18:22;;;;;;;;;;;1.10;99.90;;;;;;4928086;29;19931;-67
2022/12/15 15:20:50;;;;;;;;;;;0.80;99.90;;;;;;4926911;29;19927;-68
2022/12/15 15:23:18;;;;;;;;;;;0.50;99.90;;;;;;4925461;29;19931;-67
2022/12/15 15:25:49;;;;;;;;;;;0.20;99.90;;;;;;4927923;29;20375;-68
2022/12/15 15:28:21;;;;;;;;;;;-0.10;99.90;;;;;;4927887;29;19935;-64
2022/12/15 15:30:49;;;;;;;;;;;-0.40;99.90;;;;;;4927103;29;19934;-67
2022/12/15 15:33:18;;;;;;;;;;;-0.60;99.90;;;;;;4924891;29;19930;-66
2022/12/15 15:35:48;;;;;;;;;;;-0.80;99.90;;;;;;4931161;29;19926;-66
2022/12/15 15:38:21;;;;;;;;;;;-1.00;99.90;;;;;;4924616;29;19935;-68
2022/12/15 15:40:49;;;;;;;;;;;-1.20;99.90;;;;;;4927493;29;19927;-71
2022/12/15 15:43:16;;;;;;;;;;;-1.30;99.90;;;;;;4932403;28;19934;-71
2022/12/15 15:45:43;;;;;;;;;;;-1.40;99.90;;;;;;4929960;29;19934;-75
2022/12/15 15:48:13;;;;;;;;;;;-1.60;99.90;;;;;;4925873;29;19927;-69
2022/12/15 15:50:39;;;;;;;;;;;-1.60;99.90;;;;;;4944344;29;19927;-69
2022/12/15 15:53:09;;;;;;;;;;;-1.80;99.90;;;;;;4930244;29;19982;-69
2022/12/15 15:55:36;;;;;;;;;;;-1.90;99.90;;;;;;4924582;29;19931;-65
2022/12/15 15:58:08;;;;;;;;;;;-2.00;99.90;;;;;;4927328;29;19935;-69
2022/12/15 16:00:36;;;;;;;;;;;-2.00;99.90;;;;;;4921076;29;19982;-68
2022/12/15 16:03:03;;;;;;;;;;;-2.10;99.90;;;;;;4952127;23;19934;-72
2022/12/15 16:05:29;;;;;;;;;;;-2.10;99.90;;;;;;4928232;29;20017;-71
2022/12/15 16:07:57;;;;;;;;;;;-2.20;99.90;;;;;;4925458;29;20029;-70
2022/12/15 16:10:26;;;;;;;;;;;-2.30;99.90;;;;;;4946635;28;19961;-71
2022/12/15 16:12:54;;;;;;;;;;;-2.30;99.90;;;;;;4943380;28;19935;-70
2022/12/15 16:15:21;;;;;;;;;;;-2.40;99.90;;;;;;4930323;29;19937;-68
2022/12/15 16:17:49;;;;;;;;;;;-2.40;99.90;;;;;;4931657;29;19934;-70
2022/12/15 16:20:16;;;;;;;;;;;-2.50;99.90;;;;;;4931510;29;19990;-69
2022/12/15 16:22:44;;;;;;;;;;;-2.60;99.90;;;;;;4928550;29;19930;-69
2022/12/15 16:25:13;;;;;;;;;;;-2.60;99.90;;;;;;4927832;29;19931;-70
2022/12/15 16:27:42;;;;;;;;;;;-2.60;99.90;;;;;;4927755;29;19927;-68
2022/12/15 16:30:14;;;;;;;;;;;-2.70;99.90;;;;;;4932215;29;20021;-71
2022/12/15 16:32:41;;;;;;;;;;;-2.70;99.90;;;;;;4932424;29;19934;-71
2022/12/15 16:35:08;;;;;;;;;;;-2.70;99.90;;;;;;4929424;29;20298;-69
2022/12/15 16:37:36;;;;;;;;;;;-2.70;99.90;;;;;;4930328;29;19934;-69
2022/12/15 16:40:03;;;;;;;;;;;-2.80;99.90;;;;;;4931585;29;19937;-70
2022/12/15 16:42:30;;;;;;;;;;;-2.80;99.90;;;;;;4932554;29;19926;-70
2022/12/15 16:44:58;;;;;;;;;;;-2.90;99.90;;;;;;4931346;29;19930;-69
2022/12/15 16:47:26;;;;;;;;;;;-3.00;99.90;;;;;;4927889;29;19927;-70
2022/12/15 16:49:52;;;;;;;;;;;-3.00;99.90;;;;;;4921829;29;19927;-70
2022/12/15 16:52:20;;;;;;;;;;;-3.10;99.90;;;;;;4932479;29;20314;-69
2022/12/15 16:54:48;;;;;;;;;;;-3.20;99.90;;;;;;4925518;29;19934;-69
2022/12/15 16:57:15;;;;;;;;;;;-3.30;99.90;;;;;;4921815;29;19927;-70
2022/12/15 16:59:42;;;;;;;;;;;-3.40;99.90;;;;;;4927663;29;19927;-70
2022/12/15 17:02:22;;;;;;;;;;;-3.50;99.90;;;;;;4930304;29;19926;-72
2022/12/15 17:04:49;;;;;;;;;;;-3.50;99.90;;;;;;4919879;29;19931;-70
2022/12/15 17:07:16;;;;;;;;;;;-3.60;99.90;;;;;;4932480;29;19974;-69
2022/12/15 17:09:42;;;;;;;;;;;-3.60;99.90;;;;;;4934456;29;19960;-71
2022/12/15 17:12:12;;;;;;;;;;;-3.60;99.90;;;;;;4932480;29;19931;-68
2022/12/15 17:14:39;;;;;;;;;;;-3.60;99.90;;;;;;4931507;29;19931;-72
2022/12/15 17:17:09;;;;;;;;;;;-3.50;99.90;;;;;;4930459;29;19942;-70
2022/12/15 17:19:37;;;;;;;;;;;-3.40;99.90;;;;;;4930903;29;20303;-69
2022/12/15 17:22:04;;;;;;;;;;;-3.30;99.90;;;;;;4933277;29;19998;-69
2022/12/15 17:24:31;;;;;;;;;;;-3.40;99.90;;;;;;4934490;29;19927;-69
2022/12/15 17:26:58;;;;;;;;;;;-3.50;99.90;;;;;;4932344;29;19935;-70
2022/12/15 17:29:25;;;;;;;;;;;-3.70;99.90;;;;;;4934982;29;20373;-69
2022/12/15 17:31:52;;;;;;;;;;;-3.80;99.90;;;;;;4934251;29;20021;-70
2022/12/15 17:34:24;;;;;;;;;;;-3.90;99.90;;;;;;4934865;29;19926;-68
2022/12/15 17:36:52;;;;;;;;;;;-4.00;99.90;;;;;;4931265;29;20357;-68
2022/12/15 17:39:20;;;;;;;;;;;-4.10;99.90;;;;;;4929351;29;19927;-69
2022/12/15 17:41:47;;;;;;;;;;;-4.10;99.90;;;;;;4932230;29;19938;-68
2022/12/15 17:44:17;;;;;;;;;;;-4.10;99.90;;;;;;4932957;29;19938;-67
2022/12/15 17:46:44;;;;;;;;;;;-4.10;99.90;;;;;;4939369;28;19931;-68
2022/12/15 17:49:11;;;;;;;;;;;-4.10;99.90;;;;;;4932156;29;19934;-69
2022/12/15 17:51:38;;;;;;;;;;;-4.20;99.90;;;;;;4930684;29;19926;-68
2022/12/15 17:54:09;;;;;;;;;;;-4.20;99.90;;;;;;4931658;29;19927;-68
2022/12/15 17:56:36;;;;;;;;;;;-4.20;99.90;;;;;;4933805;29;19927;-69
2022/12/15 17:59:04;;;;;;;;;;;-4.20;99.90;;;;;;4933747;29;19988;-69
2022/12/15 18:01:31;;;;;;;;;;;-4.10;99.90;;;;;;4933040;29;20301;-68
2022/12/15 18:03:58;;;;;;;;;;;-4.10;99.90;;;;;;4934167;29;20047;-72
2022/12/15 18:06:24;;;;;;;;;;;-4.00;99.90;;;;;;4931987;29;20319;-69
2022/12/15 18:08:51;;;;;;;;;;;-4.00;99.90;;;;;;4933525;29;19927;-68
2022/12/15 18:11:19;;;;;;;;;;;-4.10;99.90;;;;;;4929563;29;19934;-70
2022/12/15 18:13:46;;;;;;;;;;;-4.20;99.90;;;;;;4933666;29;19926;-69
2022/12/15 18:16:13;;;;;;;;;;;-4.10;99.90;;;;;;4934164;29;19931;-69
2022/12/15 18:18:40;;;;;;;;;;;-4.10;99.90;;;;;;4931268;29;19934;-69
2022/12/15 18:21:12;;;;;;;;;;;-4.20;99.90;;;;;;4928133;29;19935;-70
2022/12/15 18:23:39;;;;;;;;;;;-4.30;99.90;;;;;;4931384;29;19977;-70
2022/12/15 18:26:06;;;;;;;;;;;-4.30;99.90;;;;;;4933843;29;19934;-71
2022/12/15 18:28:34;;;;;;;;;;;-4.50;99.90;;;;;;4924663;29;19934;-68
2022/12/15 18:31:04;;;;;;;;;;;-4.50;99.90;;;;;;4935830;29;19927;-69
2022/12/15 18:33:30;;;;;;;;;;;-4.50;99.90;;;;;;4929912;29;20355;-68
2022/12/15 18:35:57;;;;;;;;;;;-4.60;99.90;;;;;;4934027;29;19930;-69
2022/12/15 18:38:25;;;;;;;;;;;-4.50;99.90;;;;;;4930656;29;19935;-69
2022/12/15 18:40:53;;;;;;;;;;;-4.50;99.90;;;;;;4930727;29;19934;-70
2022/12/15 18:43:20;;;;;;;;;;;-4.50;99.90;;;;;;4929503;29;19935;-71
2022/12/15 18:45:49;;;;;;;;;;;-4.60;99.90;;;;;;4931207;29;19935;-69
2022/12/15 18:48:20;;;;;;;;;;;-4.70;99.90;;;;;;4929703;29;22318;-68
2022/12/15 18:50:50;;;;;;;;;;;-4.70;99.90;;;;;;4931645;29;19939;-68
2022/12/15 18:53:18;;;;;;;;;;;-4.80;99.90;;;;;;4931598;29;19935;-68
2022/12/15 18:55:46;;;;;;;;;;;-4.90;99.90;;;;;;4930730;29;20462;-68
2022/12/15 18:58:21;;;;;;;;;;;-4.90;99.90;;;;;;4933345;29;19927;-69
2022/12/15 19:00:49;;;;;;;;;;;-5.00;99.90;;;;;;4935093;29;19941;-68
2022/12/15 19:03:16;;;;;;;;;;;-5.10;99.90;;;;;;4932959;29;19926;-68
2022/12/15 19:05:44;;;;;;;;;;;-5.10;99.90;;;;;;4933444;29;19927;-68
2022/12/15 19:08:12;;;;;;;;;;;-5.00;99.90;;;;;;4930739;29;20397;-68
2022/12/15 19:10:42;;;;;;;;;;;-5.10;99.90;;;;;;4930575;29;19930;-69
2022/12/15 19:13:12;;;;;;;;;;;-5.20;99.90;;;;;;4930013;29;19934;-69
2022/12/15 19:15:38;;;;;;;;;;;-5.10;99.90;;;;;;4926813;29;19931;-69
2022/12/15 19:23:37;;;;;;;;;;;-5.10;99.90;;;;;;4932446;29;19927;-69
2022/12/15 19:26:04;;;;;;;;;;;-5.30;99.90;;;;;;4921509;29;19942;-69
2022/12/15 19:28:31;;;;;;;;;;;-5.30;99.90;;;;;;4929213;29;20402;-69
2022/12/15 19:30:58;;;;;;;;;;;-5.40;99.90;;;;;;4924311;29;19993;-70
2022/12/15 19:33:27;;;;;;;;;;;-5.40;99.90;;;;;;4925047;29;19927;-68
2022/12/15 19:35:56;;;;;;;;;;;-5.50;99.90;;;;;;4932869;29;19982;-69
2022/12/15 19:38:24;;;;;;;;;;;-5.50;99.90;;;;;;4924438;29;19930;-67
2022/12/15 19:40:53;;;;;;;;;;;-5.60;99.90;;;;;;4929514;29;19927;-71
2022/12/15 19:43:20;;;;;;;;;;;-5.70;99.90;;;;;;4924884;29;20363;-68
2022/12/15 19:45:47;;;;;;;;;;;-5.70;99.90;;;;;;4925076;29;19943;-68